sensor_id;sensor_type;location;lat;lon;timestamp;pressure;altitude;pressure_sealevel;temperature;humidity
53960;BME280;39866;48.638;-2.020;2022-10-23T06:01:52;100003.72;;;20.69;65.41
53960;BME280;39866;48.638;-2.020;2022-10-23T06:04:18;99993.19;;;20.66;65.63
53960;BME280;39866;48.638;-2.020;2022-10-23T06:06:46;99993.91;;;20.68;65.41
53960;BME280;39866;48.638;-2.020;2022-10-23T06:09:13;99992.44;;;20.64;65.36
53960;BME280;39866;48.638;-2.020;2022-10-23T06:11:39;99989.75;;;20.64;65.61
53960;BME280;39866;48.638;-2.020;2022-10-23T06:14:05;99976.22;;;20.64;65.13
53960;BME280;39866;48.638;-2.020;2022-10-23T06:16:31;99969.09;;;20.63;65.16
53960;BME280;39866;48.638;-2.020;2022-10-23T06:18:56;99975.22;;;20.65;65.15
53960;BME280;39866;48.638;-2.020;2022-10-23T06:21:22;99972.78;;;20.62;65.21
53960;BME280;39866;48.638;-2.020;2022-10-23T06:23:47;99963.09;;;20.60;65.37
53960;BME280;39866;48.638;-2.020;2022-10-23T06:26:15;99949.91;;;20.66;65.15
53960;BME280;39866;48.638;-2.020;2022-10-23T06:28:41;99940.56;;;20.70;65.03
53960;BME280;39866;48.638;-2.020;2022-10-23T06:31:08;99940.69;;;20.69;64.94
53960;BME280;39866;48.638;-2.020;2022-10-23T06:33:34;99939.50;;;20.62;65.06
53960;BME280;39866;48.638;-2.020;2022-10-23T06:36:00;99933.88;;;20.53;65.00
53960;BME280;39866;48.638;-2.020;2022-10-23T06:38:26;99927.72;;;20.51;64.94
53960;BME280;39866;48.638;-2.020;2022-10-23T06:40:53;99922.16;;;20.53;65.10
53960;BME280;39866;48.638;-2.020;2022-10-23T06:43:19;99904.50;;;20.38;65.09
53960;BME280;39866;48.638;-2.020;2022-10-23T06:45:44;99939.63;;;20.49;65.17
53960;BME280;39866;48.638;-2.020;2022-10-23T06:48:09;99955.59;;;20.52;64.95
53960;BME280;39866;48.638;-2.020;2022-10-23T06:50:38;99952.38;;;20.47;64.92
53960;BME280;39866;48.638;-2.020;2022-10-23T06:53:04;99963.09;;;20.48;65.05
53960;BME280;39866;48.638;-2.020;2022-10-23T06:55:30;99969.97;;;20.52;64.70
53960;BME280;39866;48.638;-2.020;2022-10-23T06:57:56;99970.72;;;20.55;64.80
53960;BME280;39866;48.638;-2.020;2022-10-23T07:00:21;99967.88;;;20.45;65.14
53960;BME280;39866;48.638;-2.020;2022-10-23T07:02:48;99972.06;;;20.49;65.15
53960;BME280;39866;48.638;-2.020;2022-10-23T07:05:14;99978.09;;;20.52;65.05
53960;BME280;39866;48.638;-2.020;2022-10-23T07:07:39;99983.38;;;20.54;64.94
53960;BME280;39866;48.638;-2.020;2022-10-23T07:10:05;99988.03;;;20.52;64.82
53960;BME280;39866;48.638;-2.020;2022-10-23T07:12:30;99982.63;;;20.52;64.92
53960;BME280;39866;48.638;-2.020;2022-10-23T07:14:56;99987.66;;;20.57;64.78
53960;BME280;39866;48.638;-2.020;2022-10-23T07:17:21;99993.59;;;20.50;64.84
53960;BME280;39866;48.638;-2.020;2022-10-23T07:19:46;99989.25;;;20.48;64.93
53960;BME280;39866;48.638;-2.020;2022-10-23T07:22:12;99995.44;;;20.50;64.98
53960;BME280;39866;48.638;-2.020;2022-10-23T07:24:37;99986.59;;;20.25;65.84
53960;BME280;39866;48.638;-2.020;2022-10-23T07:27:04;99993.31;;;20.31;65.67
53960;BME280;39866;48.638;-2.020;2022-10-23T07:29:29;99989.25;;;20.37;65.41
53960;BME280;39866;48.638;-2.020;2022-10-23T07:31:55;100001.53;;;20.41;65.42
53960;BME280;39866;48.638;-2.020;2022-10-23T07:34:22;99997.16;;;20.51;64.99
53960;BME280;39866;48.638;-2.020;2022-10-23T07:36:47;99978.84;;;20.55;64.99
53960;BME280;39866;48.638;-2.020;2022-10-23T07:39:13;99983.50;;;20.52;65.18
53960;BME280;39866;48.638;-2.020;2022-10-23T07:41:38;99983.84;;;20.48;65.41
53960;BME280;39866;48.638;-2.020;2022-10-23T07:44:04;99979.91;;;20.41;65.42
53960;BME280;39866;48.638;-2.020;2022-10-23T07:46:29;99987.06;;;20.42;65.88
53960;BME280;39866;48.638;-2.020;2022-10-23T07:48:55;99985.69;;;20.47;65.34
53960;BME280;39866;48.638;-2.020;2022-10-23T07:51:20;99980.53;;;20.44;65.60
53960;BME280;39866;48.638;-2.020;2022-10-23T07:53:46;99979.44;;;20.36;65.88
53960;BME280;39866;48.638;-2.020;2022-10-23T07:56:31;99980.91;;;20.28;66.22
53960;BME280;39866;48.638;-2.020;2022-10-23T07:58:57;99983.38;;;20.20;66.38
53960;BME280;39866;48.638;-2.020;2022-10-23T08:01:30;99981.31;;;20.13;66.59
53960;BME280;39866;48.638;-2.020;2022-10-23T08:03:57;99974.53;;;20.18;66.39
53960;BME280;39866;48.638;-2.020;2022-10-23T08:06:22;99972.44;;;20.33;66.03
53960;BME280;39866;48.638;-2.020;2022-10-23T08:08:47;99975.41;;;20.41;65.80
53960;BME280;39866;48.638;-2.020;2022-10-23T08:11:14;99971.44;;;20.45;65.69
53960;BME280;39866;48.638;-2.020;2022-10-23T08:13:41;99967.16;;;20.32;66.06
53960;BME280;39866;48.638;-2.020;2022-10-23T08:16:08;99968.25;;;20.40;66.04
53960;BME280;39866;48.638;-2.020;2022-10-23T08:18:34;99975.41;;;20.30;65.85
53960;BME280;39866;48.638;-2.020;2022-10-23T08:21:01;99956.81;;;20.37;66.00
53960;BME280;39866;48.638;-2.020;2022-10-23T08:23:27;99962.22;;;20.37;65.93
53960;BME280;39866;48.638;-2.020;2022-10-23T08:25:57;99960.66;;;20.23;66.05
53960;BME280;39866;48.638;-2.020;2022-10-23T08:28:23;99951.94;;;20.31;66.00
53960;BME280;39866;48.638;-2.020;2022-10-23T08:30:48;99943.53;;;20.45;65.47
53960;BME280;39866;48.638;-2.020;2022-10-23T08:33:14;99940.84;;;20.56;65.46
53960;BME280;39866;48.638;-2.020;2022-10-23T08:35:39;99931.72;;;20.57;65.33
53960;BME280;39866;48.638;-2.020;2022-10-23T08:38:05;99924.34;;;20.48;65.29
53960;BME280;39866;48.638;-2.020;2022-10-23T08:40:31;99920.09;;;20.45;65.60
53960;BME280;39866;48.638;-2.020;2022-10-23T08:43:11;99911.22;;;20.43;65.26
53960;BME280;39866;48.638;-2.020;2022-10-23T08:45:43;99883.19;;;20.44;65.24
53960;BME280;39866;48.638;-2.020;2022-10-23T08:48:15;99887.28;;;20.39;65.24
53960;BME280;39866;48.638;-2.020;2022-10-23T08:50:48;99908.16;;;20.37;65.28
53960;BME280;39866;48.638;-2.020;2022-10-23T08:53:22;99910.41;;;20.32;65.32
53960;BME280;39866;48.638;-2.020;2022-10-23T08:56:07;99916.28;;;20.37;65.09
53960;BME280;39866;48.638;-2.020;2022-10-23T08:58:42;99917.25;;;20.36;65.40
53960;BME280;39866;48.638;-2.020;2022-10-23T09:01:31;99903.97;;;20.44;65.24
53960;BME280;39866;48.638;-2.020;2022-10-23T09:04:00;99896.97;;;20.52;64.96
53960;BME280;39866;48.638;-2.020;2022-10-23T09:09:26;99876.19;;;20.53;65.30
53960;BME280;39866;48.638;-2.020;2022-10-23T09:12:24;99863.16;;;20.58;65.10
53960;BME280;39866;48.638;-2.020;2022-10-23T09:15:34;99860.94;;;20.63;65.23
53960;BME280;39866;48.638;-2.020;2022-10-23T09:18:29;99848.41;;;20.62;65.32
53960;BME280;39866;48.638;-2.020;2022-10-23T09:20:55;99849.38;;;20.61;65.01
53960;BME280;39866;48.638;-2.020;2022-10-23T09:23:22;99850.56;;;20.68;65.36
53960;BME280;39866;48.638;-2.020;2022-10-23T09:25:49;99845.06;;;20.70;65.15
53960;BME280;39866;48.638;-2.020;2022-10-23T09:28:26;99841.66;;;20.77;65.02
53960;BME280;39866;48.638;-2.020;2022-10-23T09:30:52;99836.25;;;20.77;65.33
53960;BME280;39866;48.638;-2.020;2022-10-23T09:33:21;99829.69;;;20.70;65.16
53960;BME280;39866;48.638;-2.020;2022-10-23T09:38:50;99827.19;;;20.78;65.17
53960;BME280;39866;48.638;-2.020;2022-10-23T09:43:44;99817.81;;;20.83;64.85
53960;BME280;39866;48.638;-2.020;2022-10-23T09:46:10;99813.72;;;20.88;64.96
53960;BME280;39866;48.638;-2.020;2022-10-23T09:48:37;99809.88;;;20.91;64.73
53960;BME280;39866;48.638;-2.020;2022-10-23T09:51:20;99804.78;;;20.97;64.54
53960;BME280;39866;48.638;-2.020;2022-10-23T09:56:32;99810.31;;;21.17;64.24
53960;BME280;39866;48.638;-2.020;2022-10-23T10:01:34;99813.47;;;21.22;63.95
53960;BME280;39866;48.638;-2.020;2022-10-23T10:04:02;99810.66;;;21.23;63.69
53960;BME280;39866;48.638;-2.020;2022-10-23T10:06:32;99801.13;;;21.29;63.79
53960;BME280;39866;48.638;-2.020;2022-10-23T10:09:11;99794.47;;;21.33;63.76
53960;BME280;39866;48.638;-2.020;2022-10-23T10:11:44;99788.38;;;21.41;63.82
53960;BME280;39866;48.638;-2.020;2022-10-23T10:17:17;99747.66;;;21.52;63.90
53960;BME280;39866;48.638;-2.020;2022-10-23T10:22:33;99745.81;;;21.52;64.28
53960;BME280;39866;48.638;-2.020;2022-10-23T10:30:20;99720.44;;;21.63;64.23
53960;BME280;39866;48.638;-2.020;2022-10-23T10:33:04;99726.75;;;21.64;64.37
53960;BME280;39866;48.638;-2.020;2022-10-23T10:35:39;99713.22;;;21.64;64.22
53960;BME280;39866;48.638;-2.020;2022-10-23T10:38:49;99721.34;;;21.73;64.22
53960;BME280;39866;48.638;-2.020;2022-10-23T10:47:04;99701.53;;;21.73;64.20
53960;BME280;39866;48.638;-2.020;2022-10-23T10:52:42;99688.13;;;21.81;63.76
53960;BME280;39866;48.638;-2.020;2022-10-23T10:55:18;99693.81;;;21.78;63.93
53960;BME280;39866;48.638;-2.020;2022-10-23T10:58:23;99688.13;;;21.81;64.24
53960;BME280;39866;48.638;-2.020;2022-10-23T11:01:10;99690.69;;;21.83;64.17
53960;BME280;39866;48.638;-2.020;2022-10-23T11:03:46;99676.59;;;21.89;64.12
53960;BME280;39866;48.638;-2.020;2022-10-23T11:06:17;99679.72;;;22.04;63.88
53960;BME280;39866;48.638;-2.020;2022-10-23T11:08:44;99680.16;;;21.99;63.79
53960;BME280;39866;48.638;-2.020;2022-10-23T11:11:15;99687.00;;;22.03;63.60
53960;BME280;39866;48.638;-2.020;2022-10-23T11:13:42;99691.97;;;22.08;63.36
53960;BME280;39866;48.638;-2.020;2022-10-23T11:18:41;99678.59;;;22.06;62.99
53960;BME280;39866;48.638;-2.020;2022-10-23T11:24:08;99706.53;;;21.97;61.40
53960;BME280;39866;48.638;-2.020;2022-10-23T11:40:43;99685.44;;;22.20;59.87
53960;BME280;39866;48.638;-2.020;2022-10-23T11:43:09;99676.03;;;22.24;59.84
53960;BME280;39866;48.638;-2.020;2022-10-23T11:45:37;99673.59;;;22.31;59.56
53960;BME280;39866;48.638;-2.020;2022-10-23T11:58:25;99680.31;;;21.97;58.21
53960;BME280;39866;48.638;-2.020;2022-10-23T12:01:29;99662.75;;;21.82;60.18
53960;BME280;39866;48.638;-2.020;2022-10-23T12:04:04;99676.56;;;21.60;58.87
53960;BME280;39866;48.638;-2.020;2022-10-23T12:06:55;99673.28;;;21.56;57.71
53960;BME280;39866;48.638;-2.020;2022-10-23T12:09:31;99652.59;;;21.55;56.22
53960;BME280;39866;48.638;-2.020;2022-10-23T12:17:01;99642.06;;;21.91;54.95
53960;BME280;39866;48.638;-2.020;2022-10-23T12:19:29;99629.13;;;21.85;54.86
53960;BME280;39866;48.638;-2.020;2022-10-23T12:22:00;99631.53;;;21.97;53.44
53960;BME280;39866;48.638;-2.020;2022-10-23T12:24:37;99620.97;;;21.94;52.40
53960;BME280;39866;48.638;-2.020;2022-10-23T12:27:15;99620.94;;;22.04;52.10
53960;BME280;39866;48.638;-2.020;2022-10-23T12:30:02;99633.50;;;21.95;49.87
53960;BME280;39866;48.638;-2.020;2022-10-23T12:38:09;99617.41;;;21.94;48.34
53960;BME280;39866;48.638;-2.020;2022-10-23T12:40:37;99610.97;;;21.95;47.98
53960;BME280;39866;48.638;-2.020;2022-10-23T12:43:20;99619.41;;;21.82;47.61
53960;BME280;39866;48.638;-2.020;2022-10-23T12:45:46;99621.25;;;21.82;48.55
53960;BME280;39866;48.638;-2.020;2022-10-23T12:48:20;99619.84;;;21.68;47.36
53960;BME280;39866;48.638;-2.020;2022-10-23T12:50:53;99600.00;;;21.67;47.52
53960;BME280;39866;48.638;-2.020;2022-10-23T12:53:20;99602.16;;;21.73;47.43
53960;BME280;39866;48.638;-2.020;2022-10-23T12:58:20;99598.03;;;21.69;48.65
53960;BME280;39866;48.638;-2.020;2022-10-23T13:00:53;99604.84;;;21.54;47.53
53960;BME280;39866;48.638;-2.020;2022-10-23T13:03:21;99604.84;;;21.54;47.39
53960;BME280;39866;48.638;-2.020;2022-10-23T13:05:49;99605.28;;;21.59;47.78
53960;BME280;39866;48.638;-2.020;2022-10-23T13:08:16;99598.16;;;21.58;48.33
53960;BME280;39866;48.638;-2.020;2022-10-23T13:10:42;99575.06;;;21.54;47.81
53960;BME280;39866;48.638;-2.020;2022-10-23T13:13:10;99584.34;;;21.81;48.01
53960;BME280;39866;48.638;-2.020;2022-10-23T13:15:42;99575.50;;;21.88;46.60
53960;BME280;39866;48.638;-2.020;2022-10-23T13:18:09;99563.91;;;21.96;46.35
53960;BME280;39866;48.638;-2.020;2022-10-23T13:20:37;99571.91;;;21.88;47.78
53960;BME280;39866;48.638;-2.020;2022-10-23T13:23:17;99572.47;;;21.91;46.66
53960;BME280;39866;48.638;-2.020;2022-10-23T13:25:53;99564.78;;;21.96;46.80
53960;BME280;39866;48.638;-2.020;2022-10-23T13:28:23;99565.91;;;21.94;46.39
53960;BME280;39866;48.638;-2.020;2022-10-23T13:31:03;99577.88;;;21.91;46.28
53960;BME280;39866;48.638;-2.020;2022-10-23T13:38:41;99577.75;;;22.02;46.34
53960;BME280;39866;48.638;-2.020;2022-10-23T13:41:15;99568.47;;;22.15;46.67
53960;BME280;39866;48.638;-2.020;2022-10-23T13:43:41;99576.28;;;22.28;46.49
53960;BME280;39866;48.638;-2.020;2022-10-23T13:46:13;99572.16;;;22.23;46.45
53960;BME280;39866;48.638;-2.020;2022-10-23T13:48:38;99575.00;;;22.32;46.34
53960;BME280;39866;48.638;-2.020;2022-10-23T13:51:29;99568.72;;;22.31;46.73
53960;BME280;39866;48.638;-2.020;2022-10-23T13:53:56;99558.47;;;22.15;45.65
53960;BME280;39866;48.638;-2.020;2022-10-23T13:56:23;99572.44;;;22.11;45.54
53960;BME280;39866;48.638;-2.020;2022-10-23T13:58:48;99560.06;;;22.18;45.34
53960;BME280;39866;48.638;-2.020;2022-10-23T14:01:26;99566.03;;;22.21;45.38
53960;BME280;39866;48.638;-2.020;2022-10-23T14:03:52;99576.53;;;22.44;45.51
53960;BME280;39866;48.638;-2.020;2022-10-23T14:06:18;99569.50;;;22.51;45.07
53960;BME280;39866;48.638;-2.020;2022-10-23T14:08:44;99572.88;;;22.63;45.19
53960;BME280;39866;48.638;-2.020;2022-10-23T14:11:10;99564.00;;;22.70;44.34
53960;BME280;39866;48.638;-2.020;2022-10-23T14:13:36;99571.88;;;22.64;44.79
53960;BME280;39866;48.638;-2.020;2022-10-23T14:16:01;99575.34;;;22.84;44.26
53960;BME280;39866;48.638;-2.020;2022-10-23T14:18:27;99553.56;;;23.03;44.34
53960;BME280;39866;48.638;-2.020;2022-10-23T14:20:52;99567.06;;;23.13;44.56
53960;BME280;39866;48.638;-2.020;2022-10-23T14:23:17;99559.69;;;23.05;43.79
53960;BME280;39866;48.638;-2.020;2022-10-23T14:25:43;99554.16;;;22.97;44.33
53960;BME280;39866;48.638;-2.020;2022-10-23T14:28:08;99576.88;;;22.96;45.06
53960;BME280;39866;48.638;-2.020;2022-10-23T14:30:35;99561.91;;;22.92;45.13
53960;BME280;39866;48.638;-2.020;2022-10-23T14:33:02;99579.81;;;22.75;44.72
53960;BME280;39866;48.638;-2.020;2022-10-23T14:35:27;99577.00;;;23.04;44.59
53960;BME280;39866;48.638;-2.020;2022-10-23T14:37:52;99561.72;;;23.03;44.58
53960;BME280;39866;48.638;-2.020;2022-10-23T14:40:17;99564.44;;;23.21;44.34
53960;BME280;39866;48.638;-2.020;2022-10-23T14:42:43;99562.09;;;23.08;44.29
53960;BME280;39866;48.638;-2.020;2022-10-23T14:45:09;99574.72;;;22.99;43.10
53960;BME280;39866;48.638;-2.020;2022-10-23T14:47:34;99552.25;;;23.07;44.21
53960;BME280;39866;48.638;-2.020;2022-10-23T14:49:59;99580.94;;;22.82;44.31
53960;BME280;39866;48.638;-2.020;2022-10-23T14:52:25;99574.34;;;22.85;44.57
53960;BME280;39866;48.638;-2.020;2022-10-23T14:54:51;99580.91;;;22.92;44.34
53960;BME280;39866;48.638;-2.020;2022-10-23T14:57:17;99566.59;;;23.17;43.93
53960;BME280;39866;48.638;-2.020;2022-10-23T14:59:45;99550.56;;;23.24;45.10
53960;BME280;39866;48.638;-2.020;2022-10-23T15:02:10;99566.06;;;23.14;44.02
53960;BME280;39866;48.638;-2.020;2022-10-23T15:04:36;99548.06;;;23.13;45.03
53960;BME280;39866;48.638;-2.020;2022-10-23T15:07:02;99554.56;;;23.02;44.18
53960;BME280;39866;48.638;-2.020;2022-10-23T15:09:27;99550.22;;;22.91;45.08
53960;BME280;39866;48.638;-2.020;2022-10-23T15:11:52;99549.47;;;22.89;45.60
53960;BME280;39866;48.638;-2.020;2022-10-23T15:14:18;99553.88;;;23.00;45.80
53960;BME280;39866;48.638;-2.020;2022-10-23T15:16:44;99563.03;;;22.99;46.20
53960;BME280;39866;48.638;-2.020;2022-10-23T15:19:10;99561.94;;;22.82;46.06
53960;BME280;39866;48.638;-2.020;2022-10-23T15:21:36;99577.47;;;22.53;46.73
53960;BME280;39866;48.638;-2.020;2022-10-23T15:24:01;99533.47;;;22.31;47.98
53960;BME280;39866;48.638;-2.020;2022-10-23T15:26:27;99562.63;;;22.19;48.20
53960;BME280;39866;48.638;-2.020;2022-10-23T15:28:58;99555.94;;;22.14;48.43
53960;BME280;39866;48.638;-2.020;2022-10-23T15:34:15;99559.34;;;22.06;48.51
53960;BME280;39866;48.638;-2.020;2022-10-23T15:36:42;99556.78;;;22.14;48.92
53960;BME280;39866;48.638;-2.020;2022-10-23T15:39:08;99556.47;;;22.08;49.00
53960;BME280;39866;48.638;-2.020;2022-10-23T15:41:36;99531.63;;;22.12;49.52
53960;BME280;39866;48.638;-2.020;2022-10-23T15:44:04;99556.22;;;22.01;49.23
53960;BME280;39866;48.638;-2.020;2022-10-23T15:46:30;99532.53;;;22.03;49.30
53960;BME280;39866;48.638;-2.020;2022-10-23T15:48:55;99525.69;;;21.99;49.65
53960;BME280;39866;48.638;-2.020;2022-10-23T15:51:21;99515.47;;;21.73;48.57
53960;BME280;39866;48.638;-2.020;2022-10-23T15:53:47;99475.22;;;21.98;49.10
53960;BME280;39866;48.638;-2.020;2022-10-23T15:56:12;99510.59;;;21.87;49.59
53960;BME280;39866;48.638;-2.020;2022-10-23T15:58:38;99502.50;;;21.77;49.13
53960;BME280;39866;48.638;-2.020;2022-10-23T16:01:04;99518.41;;;21.99;49.11
53960;BME280;39866;48.638;-2.020;2022-10-23T16:03:35;99485.97;;;21.70;49.17
53960;BME280;39866;48.638;-2.020;2022-10-23T16:06:05;99516.50;;;21.53;50.44
53960;BME280;39866;48.638;-2.020;2022-10-23T16:08:31;99514.06;;;21.11;58.68
53960;BME280;39866;48.638;-2.020;2022-10-23T16:10:56;99468.56;;;20.36;59.23
53960;BME280;39866;48.638;-2.020;2022-10-23T16:13:24;99448.97;;;20.03;59.51
53960;BME280;39866;48.638;-2.020;2022-10-23T16:15:49;99476.06;;;19.92;58.92
53960;BME280;39866;48.638;-2.020;2022-10-23T16:18:15;99479.25;;;19.97;58.70
53960;BME280;39866;48.638;-2.020;2022-10-23T16:20:42;99486.53;;;20.06;58.36
53960;BME280;39866;48.638;-2.020;2022-10-23T16:23:07;99509.31;;;20.13;57.75
53960;BME280;39866;48.638;-2.020;2022-10-23T16:25:36;99499.84;;;20.28;57.40
53960;BME280;39866;48.638;-2.020;2022-10-23T16:28:02;99479.13;;;20.39;56.79
53960;BME280;39866;48.638;-2.020;2022-10-23T16:30:28;99477.78;;;20.64;56.13
53960;BME280;39866;48.638;-2.020;2022-10-23T16:32:53;99488.34;;;20.76;56.04
53960;BME280;39866;48.638;-2.020;2022-10-23T16:35:20;99473.28;;;20.84;55.04
53960;BME280;39866;48.638;-2.020;2022-10-23T16:37:46;99493.97;;;20.94;54.86
53960;BME280;39866;48.638;-2.020;2022-10-23T16:40:11;99477.69;;;20.85;55.23
53960;BME280;39866;48.638;-2.020;2022-10-23T16:42:37;99492.09;;;20.95;55.80
53960;BME280;39866;48.638;-2.020;2022-10-23T16:45:05;99479.00;;;20.90;55.21
53960;BME280;39866;48.638;-2.020;2022-10-23T16:47:31;99495.22;;;21.00;55.76
53960;BME280;39866;48.638;-2.020;2022-10-23T16:49:56;99494.28;;;20.51;57.82
53960;BME280;39866;48.638;-2.020;2022-10-23T16:52:22;99487.22;;;20.29;58.29
53960;BME280;39866;48.638;-2.020;2022-10-23T16:54:47;99473.53;;;20.31;58.54
53960;BME280;39866;48.638;-2.020;2022-10-23T16:57:12;99493.47;;;20.29;58.54
53960;BME280;39866;48.638;-2.020;2022-10-23T16:59:38;99493.81;;;20.46;57.93
53960;BME280;39866;48.638;-2.020;2022-10-23T17:02:03;99490.09;;;20.47;57.30
53960;BME280;39866;48.638;-2.020;2022-10-23T17:04:29;99482.91;;;20.57;57.00
53960;BME280;39866;48.638;-2.020;2022-10-23T17:06:54;99488.63;;;20.73;57.05
53960;BME280;39866;48.638;-2.020;2022-10-23T17:09:19;99482.34;;;20.63;56.50
53960;BME280;39866;48.638;-2.020;2022-10-23T17:11:45;99473.22;;;20.55;56.44
53960;BME280;39866;48.638;-2.020;2022-10-23T17:14:13;99479.38;;;20.66;55.97
53960;BME280;39866;48.638;-2.020;2022-10-23T17:16:44;99485.50;;;20.68;56.14
53960;BME280;39866;48.638;-2.020;2022-10-23T17:19:11;99527.56;;;20.51;56.87
53960;BME280;39866;48.638;-2.020;2022-10-23T17:21:38;99520.34;;;20.31;59.23
53960;BME280;39866;48.638;-2.020;2022-10-23T17:24:05;99527.38;;;20.13;61.69
53960;BME280;39866;48.638;-2.020;2022-10-23T17:26:31;99510.69;;;19.77;64.78
53960;BME280;39866;48.638;-2.020;2022-10-23T17:28:58;99486.66;;;19.42;68.42
53960;BME280;39866;48.638;-2.020;2022-10-23T17:31:29;99531.44;;;19.12;69.51
53960;BME280;39866;48.638;-2.020;2022-10-23T17:33:57;99532.69;;;18.97;70.33
53960;BME280;39866;48.638;-2.020;2022-10-23T17:36:24;99535.63;;;18.94;71.41
53960;BME280;39866;48.638;-2.020;2022-10-23T17:38:50;99556.13;;;18.85;71.75
53960;BME280;39866;48.638;-2.020;2022-10-23T17:41:17;99519.75;;;18.57;71.86
53960;BME280;39866;48.638;-2.020;2022-10-23T17:43:43;99524.56;;;18.42;72.29
53960;BME280;39866;48.638;-2.020;2022-10-23T17:46:10;99535.69;;;18.60;72.57
53960;BME280;39866;48.638;-2.020;2022-10-23T17:48:36;99529.44;;;18.60;72.12
53960;BME280;39866;48.638;-2.020;2022-10-23T17:51:07;99540.31;;;18.69;71.83
53960;BME280;39866;48.638;-2.020;2022-10-23T17:53:35;99534.84;;;18.71;71.46
53960;BME280;39866;48.638;-2.020;2022-10-23T17:56:02;99556.75;;;18.66;71.20
53960;BME280;39866;48.638;-2.020;2022-10-23T17:58:28;99541.47;;;18.78;71.19
53960;BME280;39866;48.638;-2.020;2022-10-23T18:00:54;99549.78;;;18.86;71.18
53960;BME280;39866;48.638;-2.020;2022-10-23T18:03:19;99559.34;;;18.90;71.18
53960;BME280;39866;48.638;-2.020;2022-10-23T18:05:45;99564.13;;;18.87;70.20
53960;BME280;39866;48.638;-2.020;2022-10-23T18:08:10;99569.50;;;18.87;69.37
53960;BME280;39866;48.638;-2.020;2022-10-23T18:10:35;99557.72;;;18.88;68.99
53960;BME280;39866;48.638;-2.020;2022-10-23T18:13:01;99561.50;;;18.96;68.48
53960;BME280;39866;48.638;-2.020;2022-10-23T18:15:26;99574.00;;;18.97;68.19
53960;BME280;39866;48.638;-2.020;2022-10-23T18:17:52;99561.50;;;19.08;67.56
53960;BME280;39866;48.638;-2.020;2022-10-23T18:20:17;99590.19;;;19.09;67.26
53960;BME280;39866;48.638;-2.020;2022-10-23T18:22:42;99594.72;;;19.08;66.83
53960;BME280;39866;48.638;-2.020;2022-10-23T18:25:08;99582.56;;;19.14;65.91
53960;BME280;39866;48.638;-2.020;2022-10-23T18:27:33;99594.09;;;19.16;65.66
53960;BME280;39866;48.638;-2.020;2022-10-23T18:29:59;99603.97;;;19.26;65.43
53960;BME280;39866;48.638;-2.020;2022-10-23T18:32:24;99594.19;;;19.25;66.04
53960;BME280;39866;48.638;-2.020;2022-10-23T18:34:50;99601.88;;;19.30;64.82
53960;BME280;39866;48.638;-2.020;2022-10-23T18:37:16;99595.41;;;19.21;64.75
53960;BME280;39866;48.638;-2.020;2022-10-23T18:39:41;99587.06;;;19.24;65.25
53960;BME280;39866;48.638;-2.020;2022-10-23T18:42:07;99609.09;;;19.41;64.75
53960;BME280;39866;48.638;-2.020;2022-10-23T18:44:32;99617.91;;;19.43;64.79
53960;BME280;39866;48.638;-2.020;2022-10-23T18:46:58;99602.38;;;19.35;64.35
53960;BME280;39866;48.638;-2.020;2022-10-23T18:49:24;99620.81;;;19.51;64.37
53960;BME280;39866;48.638;-2.020;2022-10-23T18:51:49;99598.38;;;19.50;63.72
53960;BME280;39866;48.638;-2.020;2022-10-23T18:54:17;99622.66;;;19.50;64.71
53960;BME280;39866;48.638;-2.020;2022-10-23T18:56:43;99620.03;;;19.39;63.60
53960;BME280;39866;48.638;-2.020;2022-10-23T18:59:18;99606.16;;;19.44;63.73
53960;BME280;39866;48.638;-2.020;2022-10-23T19:01:44;99613.47;;;19.53;63.09
53960;BME280;39866;48.638;-2.020;2022-10-23T19:04:10;99602.22;;;19.48;63.70
53960;BME280;39866;48.638;-2.020;2022-10-23T19:06:40;99619.34;;;19.58;63.79
53960;BME280;39866;48.638;-2.020;2022-10-23T19:09:07;99608.78;;;19.55;63.11
53960;BME280;39866;48.638;-2.020;2022-10-23T19:11:32;99597.53;;;19.61;63.10
53960;BME280;39866;48.638;-2.020;2022-10-23T19:13:58;99609.38;;;19.70;63.01
53960;BME280;39866;48.638;-2.020;2022-10-23T19:16:32;99604.63;;;19.62;62.44
53960;BME280;39866;48.638;-2.020;2022-10-23T19:19:03;99608.19;;;19.63;62.11
53960;BME280;39866;48.638;-2.020;2022-10-23T19:21:33;99617.84;;;19.76;61.70
53960;BME280;39866;48.638;-2.020;2022-10-23T19:24:05;99600.94;;;19.63;61.96
53960;BME280;39866;48.638;-2.020;2022-10-23T19:26:33;99623.34;;;19.75;61.84
53960;BME280;39866;48.638;-2.020;2022-10-23T19:29:00;99628.94;;;19.83;62.01
53960;BME280;39866;48.638;-2.020;2022-10-23T19:31:26;99619.72;;;19.65;60.72
53960;BME280;39866;48.638;-2.020;2022-10-23T19:33:52;99614.28;;;19.76;60.64
53960;BME280;39866;48.638;-2.020;2022-10-23T19:36:17;99651.00;;;19.67;60.91
53960;BME280;39866;48.638;-2.020;2022-10-23T19:38:43;99651.00;;;19.67;61.88
53960;BME280;39866;48.638;-2.020;2022-10-23T19:41:08;99620.19;;;19.70;61.10
53960;BME280;39866;48.638;-2.020;2022-10-23T19:43:33;99639.16;;;19.79;60.86
53960;BME280;39866;48.638;-2.020;2022-10-23T19:46:00;99644.84;;;19.76;60.21
53960;BME280;39866;48.638;-2.020;2022-10-23T19:48:26;99639.75;;;19.83;60.31
53960;BME280;39866;48.638;-2.020;2022-10-23T19:50:52;99654.72;;;19.87;60.41
53960;BME280;39866;48.638;-2.020;2022-10-23T19:53:18;99656.09;;;19.82;60.20
53960;BME280;39866;48.638;-2.020;2022-10-23T19:55:43;99676.22;;;19.89;59.77
53960;BME280;39866;48.638;-2.020;2022-10-23T19:58:08;99680.28;;;19.83;58.97
53960;BME280;39866;48.638;-2.020;2022-10-23T20:00:34;99666.31;;;19.99;59.44
53960;BME280;39866;48.638;-2.020;2022-10-23T20:03:00;99691.09;;;20.04;58.96
53960;BME280;39866;48.638;-2.020;2022-10-23T20:05:25;99688.34;;;19.94;59.64
53960;BME280;39866;48.638;-2.020;2022-10-23T20:07:51;99686.09;;;19.99;59.77
53960;BME280;39866;48.638;-2.020;2022-10-23T20:10:16;99720.06;;;19.81;62.00
53960;BME280;39866;48.638;-2.020;2022-10-23T20:12:41;99736.19;;;19.38;66.23
53960;BME280;39866;48.638;-2.020;2022-10-23T20:15:08;99733.28;;;19.07;68.70
53960;BME280;39866;48.638;-2.020;2022-10-23T20:17:33;99734.72;;;18.89;69.69
53960;BME280;39866;48.638;-2.020;2022-10-23T20:19:59;99733.50;;;18.70;70.65
53960;BME280;39866;48.638;-2.020;2022-10-23T20:22:24;99733.78;;;18.54;71.70